Warner Robins, Georgia
Current Conditions -  °F | °C
As of 2:58 PM on Sunday 25 Jan 2015 (Local Time) from KWRB Reporting Station
Clear Clear  
Wind Chill: 61°   Ceiling: Unl
Heat Index: 61°   Visibility: 10mi
Dew Point: 32°   Wind: 16mph
Humidity: 34%   Direction: 190°S
Pressure: 29.85"   Gusts: NA
Location:  32.62°N, 83.61°W
Report Text: KWRB 251958Z AUTO 19014KT 10SM CLR 16/00 A2985 RMK AO2 SLP111 T01630002 $
Loading
Personal Weather Stations






























Interactive Weather Map New forecast layout! Learn more

10-Day Weather Forecast

Advertisements
Track Severe Weather on mobile